West Leechburg, Pennsylvania
Current Conditions -  °F | °C
As of 3:35 AM on Tuesday 27 Jan 2015 (Local Time) from KBTP Reporting Station
Overcast Overcast  
Wind Chill: 13°   Ceiling: 900
Heat Index: 19°   Visibility: 10mi
Dew Point: 16°   Wind: 5mph
Humidity: 86%   Direction: 290°WNW
Pressure: 29.84"   Gusts: NA
Location:  40.669°N, 79.6041°W
Report Text: KBTP 270835Z AUTO 29004KT 10SM OVC009 M07/M09 A2984 RMK AO1
Loading
Personal Weather Stations






























Interactive Weather Map New forecast layout! Learn more

10-Day Weather Forecast

Advertisements
Track Severe Weather on mobile